KILG/ILG METAR and TAF weather

Enter ICAO airport designator
Station Type Date Time Source
KILG METAR 2019/08/26 07:51 UTC NOAA

KILG 260751Z AUTO 34004KT 10SM CLR 16/14 A3019 RMK AO2 SLP224 T01560144 $


Station Type Date Time Source
KILG Decoded METAR 2019/08/26 07:51 UTC NOAA

Station name not available
Aug 26, 2019 - 03:51 AM EDT / 2019.08.26 0751 UTC
Wind: from the NNW (340 degrees) at 5 MPH (4 KT):0
Visibility: 10 mile(s):0
Sky conditions: clear
Temperature: 60.1 F (15.6 C)
Dew Point: 57.9 F (14.4 C)
Relative Humidity: 92%
Pressure (altimeter): 30.19 in. Hg (1022 hPa)
ob: KILG 260751Z AUTO 34004KT 10SM CLR 16/14 A3019 RMK AO2 SLP224 T01560144
cycle: 8

Station Type Date Time Source
KILG TAF 2019/08/26 06:24 UTC NOAA

TAF KILG 260523Z 2606/2706 05007KT P6SM SCT250
FM261400 07010KT P6SM BKN050
FM262200 09008KT P6SM SCT250
FM270000 12005KT P6SM BKN250

Example: see airport list